sensor_id;sensor_type;location;lat;lon;timestamp;pressure;altitude;pressure_sealevel;temperature;humidity
8501;BME280;4288;48.484;10.024;2023-07-02T00:00:10;95064.03;;;15.66;nan
8501;BME280;4288;48.484;10.024;2023-07-02T00:02:39;95063.19;;;15.69;nan
8501;BME280;4288;48.484;10.024;2023-07-02T00:05:07;95065.44;;;15.70;nan
8501;BME280;4288;48.484;10.024;2023-07-02T00:07:35;95065.28;;;15.77;nan
8501;BME280;4288;48.484;10.024;2023-07-02T00:10:04;95065.44;;;15.86;nan
8501;BME280;4288;48.484;10.024;2023-07-02T00:12:31;95071.72;;;15.96;nan
8501;BME280;4288;48.484;10.024;2023-07-02T00:14:59;95062.72;;;15.86;nan
8501;BME280;4288;48.484;10.024;2023-07-02T00:17:27;95069.78;;;15.96;nan
8501;BME280;4288;48.484;10.024;2023-07-02T00:19:56;95074.25;;;16.03;nan
8501;BME280;4288;48.484;10.024;2023-07-02T00:22:23;95066.84;;;16.07;nan
8501;BME280;4288;48.484;10.024;2023-07-02T00:24:50;95077.84;;;16.13;nan
8501;BME280;4288;48.484;10.024;2023-07-02T00:27:21;95070.50;;;16.13;nan
8501;BME280;4288;48.484;10.024;2023-07-02T00:29:49;95076.22;;;16.15;nan
8501;BME280;4288;48.484;10.024;2023-07-02T00:32:16;95083.91;;;16.17;nan
8501;BME280;4288;48.484;10.024;2023-07-02T00:34:43;95092.56;;;16.24;nan
8501;BME280;4288;48.484;10.024;2023-07-02T00:37:12;95106.84;;;16.37;nan
8501;BME280;4288;48.484;10.024;2023-07-02T00:39:41;95120.22;;;16.41;nan
8501;BME280;4288;48.484;10.024;2023-07-02T00:42:08;95115.06;;;16.46;nan
8501;BME280;4288;48.484;10.024;2023-07-02T00:44:37;95117.63;;;16.37;nan
8501;BME280;4288;48.484;10.024;2023-07-02T00:47:07;95112.13;;;16.41;nan
8501;BME280;4288;48.484;10.024;2023-07-02T00:49:34;95115.13;;;16.30;nan
8501;BME280;4288;48.484;10.024;2023-07-02T00:52:02;95116.13;;;16.36;nan
8501;BME280;4288;48.484;10.024;2023-07-02T00:54:31;95108.78;;;16.37;nan
8501;BME280;4288;48.484;10.024;2023-07-02T00:56:58;95109.63;;;16.34;nan
8501;BME280;4288;48.484;10.024;2023-07-02T00:59:28;95097.00;;;16.31;nan
8501;BME280;4288;48.484;10.024;2023-07-02T01:01:56;95097.41;;;16.29;nan
8501;BME280;4288;48.484;10.024;2023-07-02T01:04:24;95103.56;;;16.30;nan
8501;BME280;4288;48.484;10.024;2023-07-02T01:06:53;95099.66;;;16.18;nan
8501;BME280;4288;48.484;10.024;2023-07-02T01:09:23;95098.13;;;16.17;nan
8501;BME280;4288;48.484;10.024;2023-07-02T01:11:55;95105.47;;;16.17;nan
8501;BME280;4288;48.484;10.024;2023-07-02T01:14:26;95102.50;;;16.11;nan
8501;BME280;4288;48.484;10.024;2023-07-02T01:16:57;95114.41;;;16.14;nan
8501;BME280;4288;48.484;10.024;2023-07-02T01:19:39;95103.63;;;16.14;nan
8501;BME280;4288;48.484;10.024;2023-07-02T01:22:09;95107.34;;;16.03;nan
8501;BME280;4288;48.484;10.024;2023-07-02T01:24:38;95101.63;;;16.01;nan
8501;BME280;4288;48.484;10.024;2023-07-02T01:27:06;95092.69;;;16.04;nan
8501;BME280;4288;48.484;10.024;2023-07-02T01:29:33;95092.81;;;15.85;nan
8501;BME280;4288;48.484;10.024;2023-07-02T01:32:03;95101.00;;;15.81;nan
8501;BME280;4288;48.484;10.024;2023-07-02T01:34:30;95094.75;;;15.84;nan
8501;BME280;4288;48.484;10.024;2023-07-02T01:36:59;95098.22;;;15.69;nan
8501;BME280;4288;48.484;10.024;2023-07-02T01:39:26;95099.47;;;15.64;nan
8501;BME280;4288;48.484;10.024;2023-07-02T01:41:55;95101.00;;;15.65;nan
8501;BME280;4288;48.484;10.024;2023-07-02T01:44:33;95101.56;;;15.57;nan
8501;BME280;4288;48.484;10.024;2023-07-02T01:47:01;95102.09;;;15.52;nan
8501;BME280;4288;48.484;10.024;2023-07-02T01:49:28;95104.50;;;15.62;nan
8501;BME280;4288;48.484;10.024;2023-07-02T01:51:56;95107.38;;;15.55;nan
8501;BME280;4288;48.484;10.024;2023-07-02T01:54:27;95102.09;;;15.52;nan
8501;BME280;4288;48.484;10.024;2023-07-02T01:56:55;95103.78;;;15.46;nan
8501;BME280;4288;48.484;10.024;2023-07-02T01:59:23;95103.63;;;15.33;nan
8501;BME280;4288;48.484;10.024;2023-07-02T02:01:51;95114.25;;;15.40;nan
8501;BME280;4288;48.484;10.024;2023-07-02T02:04:19;95115.50;;;15.36;nan
8501;BME280;4288;48.484;10.024;2023-07-02T02:06:46;95111.47;;;15.28;nan
8501;BME280;4288;48.484;10.024;2023-07-02T02:09:14;95116.41;;;15.29;nan
8501;BME280;4288;48.484;10.024;2023-07-02T02:11:44;95113.59;;;15.36;nan
8501;BME280;4288;48.484;10.024;2023-07-02T02:14:12;95120.31;;;15.28;nan
8501;BME280;4288;48.484;10.024;2023-07-02T02:16:39;95119.31;;;15.38;nan
8501;BME280;4288;48.484;10.024;2023-07-02T02:19:06;95123.94;;;15.38;nan
8501;BME280;4288;48.484;10.024;2023-07-02T02:21:34;69197.78;;;-143.23;100.00
8501;BME280;4288;48.484;10.024;2023-07-02T02:24:01;69197.78;;;-143.23;100.00
8501;BME280;4288;48.484;10.024;2023-07-02T02:26:28;69197.78;;;-143.23;100.00
8501;BME280;4288;48.484;10.024;2023-07-02T02:28:57;69197.78;;;-143.23;100.00
8501;BME280;4288;48.484;10.024;2023-07-02T02:31:25;69197.78;;;-143.23;100.00
8501;BME280;4288;48.484;10.024;2023-07-02T02:33:52;69197.78;;;-143.23;100.00
8501;BME280;4288;48.484;10.024;2023-07-02T02:36:19;69197.78;;;-143.23;100.00
8501;BME280;4288;48.484;10.024;2023-07-02T02:38:47;69197.78;;;-143.23;100.00
8501;BME280;4288;48.484;10.024;2023-07-02T02:41:14;69197.78;;;-143.23;100.00
8501;BME280;4288;48.484;10.024;2023-07-02T02:43:42;69197.78;;;-143.23;100.00
8501;BME280;4288;48.484;10.024;2023-07-02T02:46:12;69197.78;;;-143.23;100.00
8501;BME280;4288;48.484;10.024;2023-07-02T02:48:39;69197.78;;;-143.23;100.00
8501;BME280;4288;48.484;10.024;2023-07-02T02:51:06;69197.78;;;-143.23;100.00
8501;BME280;4288;48.484;10.024;2023-07-02T02:53:34;69197.78;;;-143.23;100.00
8501;BME280;4288;48.484;10.024;2023-07-02T02:56:01;69197.78;;;-143.23;100.00
8501;BME280;4288;48.484;10.024;2023-07-02T02:58:28;69197.78;;;-143.23;100.00
8501;BME280;4288;48.484;10.024;2023-07-02T03:00:56;69197.78;;;-143.23;100.00
8501;BME280;4288;48.484;10.024;2023-07-02T03:03:25;69197.78;;;-143.23;100.00
8501;BME280;4288;48.484;10.024;2023-07-02T03:05:52;69197.78;;;-143.23;100.00
8501;BME280;4288;48.484;10.024;2023-07-02T03:08:19;69197.78;;;-143.23;100.00
8501;BME280;4288;48.484;10.024;2023-07-02T03:10:47;69197.78;;;-143.23;100.00
8501;BME280;4288;48.484;10.024;2023-07-02T03:13:14;69197.78;;;-143.23;100.00
8501;BME280;4288;48.484;10.024;2023-07-02T03:15:41;69197.78;;;-143.23;100.00
8501;BME280;4288;48.484;10.024;2023-07-02T03:18:09;69197.78;;;-143.23;100.00
8501;BME280;4288;48.484;10.024;2023-07-02T03:20:38;69197.78;;;-143.23;100.00
8501;BME280;4288;48.484;10.024;2023-07-02T03:23:05;95060.78;;;15.42;nan
8501;BME280;4288;48.484;10.024;2023-07-02T03:25:32;95129.06;;;13.49;nan
8501;BME280;4288;48.484;10.024;2023-07-02T03:28:00;95132.75;;;13.58;nan
8501;BME280;4288;48.484;10.024;2023-07-02T03:30:27;95133.53;;;13.59;nan
8501;BME280;4288;48.484;10.024;2023-07-02T03:32:55;95129.97;;;13.65;nan
8501;BME280;4288;48.484;10.024;2023-07-02T03:35:23;95126.47;;;13.68;nan
8501;BME280;4288;48.484;10.024;2023-07-02T03:40:19;95074.09;;;13.80;nan
8501;BME280;4288;48.484;10.024;2023-07-02T03:42:46;95123.13;;;13.84;nan
8501;BME280;4288;48.484;10.024;2023-07-02T03:45:13;95129.91;;;13.92;nan
8501;BME280;4288;48.484;10.024;2023-07-02T03:47:41;95134.72;;;14.00;nan
8501;BME280;4288;48.484;10.024;2023-07-02T03:50:09;95128.03;;;14.12;nan
8501;BME280;4288;48.484;10.024;2023-07-02T03:52:37;95127.88;;;14.19;nan
8501;BME280;4288;48.484;10.024;2023-07-02T03:55:07;95133.88;;;14.26;nan
8501;BME280;4288;48.484;10.024;2023-07-02T03:57:34;95137.00;;;14.25;nan
8501;BME280;4288;48.484;10.024;2023-07-02T04:00:02;95140.34;;;14.33;nan
8501;BME280;4288;48.484;10.024;2023-07-02T04:02:31;95145.22;;;14.38;nan
8501;BME280;4288;48.484;10.024;2023-07-02T04:04:58;95141.72;;;14.41;nan
8501;BME280;4288;48.484;10.024;2023-07-02T04:07:25;95159.00;;;14.40;nan
8501;BME280;4288;48.484;10.024;2023-07-02T04:09:53;95160.41;;;14.48;nan
8501;BME280;4288;48.484;10.024;2023-07-02T04:12:21;95174.69;;;14.45;nan
8501;BME280;4288;48.484;10.024;2023-07-02T04:14:49;95173.56;;;14.42;nan
8501;BME280;4288;48.484;10.024;2023-07-02T04:17:16;95172.13;;;14.57;nan
8501;BME280;4288;48.484;10.024;2023-07-02T04:19:43;95174.34;;;14.62;nan
8501;BME280;4288;48.484;10.024;2023-07-02T04:22:11;95176.69;;;14.60;nan
8501;BME280;4288;48.484;10.024;2023-07-02T04:24:38;95184.41;;;14.58;nan
8501;BME280;4288;48.484;10.024;2023-07-02T04:27:06;95195.38;;;14.67;nan
8501;BME280;4288;48.484;10.024;2023-07-02T04:29:34;95192.63;;;14.71;nan
8501;BME280;4288;48.484;10.024;2023-07-02T04:32:02;95190.91;;;14.80;nan
8501;BME280;4288;48.484;10.024;2023-07-02T04:34:29;95192.84;;;14.80;nan
8501;BME280;4288;48.484;10.024;2023-07-02T04:36:57;95194.56;;;14.70;nan
8501;BME280;4288;48.484;10.024;2023-07-02T04:39:24;95202.34;;;14.65;nan
8501;BME280;4288;48.484;10.024;2023-07-02T04:41:51;95198.66;;;14.78;nan
8501;BME280;4288;48.484;10.024;2023-07-02T04:44:19;95201.72;;;14.77;nan
8501;BME280;4288;48.484;10.024;2023-07-02T04:46:49;95199.19;;;14.70;nan
8501;BME280;4288;48.484;10.024;2023-07-02T04:49:16;95211.09;;;14.69;nan
8501;BME280;4288;48.484;10.024;2023-07-02T04:51:44;95210.41;;;14.65;nan
8501;BME280;4288;48.484;10.024;2023-07-02T04:54:11;95222.50;;;14.57;nan
8501;BME280;4288;48.484;10.024;2023-07-02T04:56:38;95231.22;;;14.41;nan
8501;BME280;4288;48.484;10.024;2023-07-02T04:59:06;95223.25;;;14.34;nan
8501;BME280;4288;48.484;10.024;2023-07-02T05:01:33;95175.91;;;14.40;nan
8501;BME280;4288;48.484;10.024;2023-07-02T05:06:29;95125.97;;;14.19;nan
8501;BME280;4288;48.484;10.024;2023-07-02T05:08:56;95231.53;;;14.20;nan
8501;BME280;4288;48.484;10.024;2023-07-02T05:11:24;95233.94;;;14.14;nan
8501;BME280;4288;48.484;10.024;2023-07-02T05:13:51;95248.53;;;14.13;nan
8501;BME280;4288;48.484;10.024;2023-07-02T05:16:18;95244.69;;;14.14;nan
8501;BME280;4288;48.484;10.024;2023-07-02T05:18:46;95242.34;;;14.16;nan
8501;BME280;4288;48.484;10.024;2023-07-02T05:21:18;95245.16;;;14.09;nan
8501;BME280;4288;48.484;10.024;2023-07-02T05:23:45;95244.31;;;14.12;nan
8501;BME280;4288;48.484;10.024;2023-07-02T05:26:12;95247.25;;;14.21;nan
8501;BME280;4288;48.484;10.024;2023-07-02T05:28:40;95256.69;;;14.33;nan
8501;BME280;4288;48.484;10.024;2023-07-02T05:31:07;95258.84;;;14.42;nan
8501;BME280;4288;48.484;10.024;2023-07-02T05:33:34;95254.09;;;14.49;nan
8501;BME280;4288;48.484;10.024;2023-07-02T05:36:02;95251.16;;;14.63;nan
8501;BME280;4288;48.484;10.024;2023-07-02T05:38:31;95261.66;;;14.58;nan
8501;BME280;4288;48.484;10.024;2023-07-02T05:40:58;95254.22;;;14.65;nan
8501;BME280;4288;48.484;10.024;2023-07-02T05:43:25;95259.28;;;14.83;nan
8501;BME280;4288;48.484;10.024;2023-07-02T05:45:53;95258.91;;;14.81;nan
8501;BME280;4288;48.484;10.024;2023-07-02T05:48:20;95264.38;;;14.77;nan
8501;BME280;4288;48.484;10.024;2023-07-02T05:50:47;95265.06;;;14.81;nan
8501;BME280;4288;48.484;10.024;2023-07-02T05:53:15;95257.50;;;14.96;nan
8501;BME280;4288;48.484;10.024;2023-07-02T05:55:44;95254.16;;;14.88;nan
8501;BME280;4288;48.484;10.024;2023-07-02T05:58:11;95257.63;;;14.89;nan
8501;BME280;4288;48.484;10.024;2023-07-02T06:00:38;95260.31;;;14.89;nan
8501;BME280;4288;48.484;10.024;2023-07-02T06:03:07;95251.69;;;14.78;nan
8501;BME280;4288;48.484;10.024;2023-07-02T06:05:35;95262.41;;;15.21;nan
8501;BME280;4288;48.484;10.024;2023-07-02T06:08:02;95260.94;;;15.55;nan
8501;BME280;4288;48.484;10.024;2023-07-02T06:10:29;95261.69;;;15.91;nan
8501;BME280;4288;48.484;10.024;2023-07-02T06:12:58;95269.81;;;15.72;nan
8501;BME280;4288;48.484;10.024;2023-07-02T06:15:25;95274.00;;;15.73;nan
8501;BME280;4288;48.484;10.024;2023-07-02T06:17:53;95270.72;;;15.65;nan
8501;BME280;4288;48.484;10.024;2023-07-02T06:20:20;95276.88;;;15.82;nan
8501;BME280;4288;48.484;10.024;2023-07-02T06:22:48;95273.72;;;16.35;nan
8501;BME280;4288;48.484;10.024;2023-07-02T06:25:15;95274.66;;;16.45;nan
8501;BME280;4288;48.484;10.024;2023-07-02T06:27:42;95270.84;;;16.74;nan
8501;BME280;4288;48.484;10.024;2023-07-02T06:30:11;95270.09;;;16.74;nan
8501;BME280;4288;48.484;10.024;2023-07-02T06:32:39;95271.97;;;17.47;nan
8501;BME280;4288;48.484;10.024;2023-07-02T06:35:07;95278.84;;;17.89;nan
8501;BME280;4288;48.484;10.024;2023-07-02T06:37:34;95272.38;;;18.12;nan
8501;BME280;4288;48.484;10.024;2023-07-02T06:40:02;95271.81;;;17.79;nan
8501;BME280;4288;48.484;10.024;2023-07-02T06:42:30;95273.88;;;18.13;nan
8501;BME280;4288;48.484;10.024;2023-07-02T06:44:59;95282.50;;;18.33;nan
8501;BME280;4288;48.484;10.024;2023-07-02T06:47:27;95276.09;;;18.39;nan
8501;BME280;4288;48.484;10.024;2023-07-02T06:49:55;95294.53;;;17.82;nan
8501;BME280;4288;48.484;10.024;2023-07-02T06:52:22;95282.03;;;17.18;nan
8501;BME280;4288;48.484;10.024;2023-07-02T06:54:50;95295.72;;;17.11;nan
8501;BME280;4288;48.484;10.024;2023-07-02T06:57:17;95290.28;;;17.27;nan
8501;BME280;4288;48.484;10.024;2023-07-02T06:59:45;95290.59;;;17.29;nan
8501;BME280;4288;48.484;10.024;2023-07-02T07:02:12;95291.03;;;17.56;nan
8501;BME280;4288;48.484;10.024;2023-07-02T07:04:41;95296.03;;;17.95;nan
8501;BME280;4288;48.484;10.024;2023-07-02T07:07:08;95298.53;;;18.27;nan
8501;BME280;4288;48.484;10.024;2023-07-02T07:09:35;95300.25;;;18.09;nan
8501;BME280;4288;48.484;10.024;2023-07-02T07:12:04;95302.97;;;18.34;nan
8501;BME280;4288;48.484;10.024;2023-07-02T07:14:31;95304.94;;;18.33;nan
8501;BME280;4288;48.484;10.024;2023-07-02T07:16:59;95306.75;;;17.99;nan
8501;BME280;4288;48.484;10.024;2023-07-02T07:19:26;95307.72;;;18.05;nan
8501;BME280;4288;48.484;10.024;2023-07-02T07:21:55;95297.88;;;18.11;nan
8501;BME280;4288;48.484;10.024;2023-07-02T07:24:23;95305.34;;;18.07;nan
8501;BME280;4288;48.484;10.024;2023-07-02T07:26:51;95308.50;;;18.18;nan
8501;BME280;4288;48.484;10.024;2023-07-02T07:29:18;95311.31;;;18.02;nan
8501;BME280;4288;48.484;10.024;2023-07-02T07:31:45;95309.66;;;17.79;nan
8501;BME280;4288;48.484;10.024;2023-07-02T07:34:13;95308.94;;;17.50;nan
8501;BME280;4288;48.484;10.024;2023-07-02T07:36:40;95316.97;;;17.53;nan
8501;BME280;4288;48.484;10.024;2023-07-02T07:39:09;95323.59;;;17.77;nan
8501;BME280;4288;48.484;10.024;2023-07-02T07:41:36;95325.75;;;17.70;nan
8501;BME280;4288;48.484;10.024;2023-07-02T07:44:04;95323.47;;;17.40;nan
8501;BME280;4288;48.484;10.024;2023-07-02T07:46:31;95325.34;;;17.43;nan
8501;BME280;4288;48.484;10.024;2023-07-02T07:48:59;95332.44;;;17.65;nan
8501;BME280;4288;48.484;10.024;2023-07-02T07:51:26;95329.09;;;17.61;nan
8501;BME280;4288;48.484;10.024;2023-07-02T07:53:53;95328.72;;;17.88;nan
8501;BME280;4288;48.484;10.024;2023-07-02T07:56:22;95329.38;;;17.92;nan
8501;BME280;4288;48.484;10.024;2023-07-02T07:58:49;95327.84;;;17.91;nan
8501;BME280;4288;48.484;10.024;2023-07-02T08:01:17;95341.25;;;17.95;nan
8501;BME280;4288;48.484;10.024;2023-07-02T08:03:44;95331.66;;;18.19;nan
8501;BME280;4288;48.484;10.024;2023-07-02T08:06:11;95326.53;;;18.08;nan
8501;BME280;4288;48.484;10.024;2023-07-02T08:08:39;95326.66;;;18.05;nan
8501;BME280;4288;48.484;10.024;2023-07-02T08:11:06;95327.47;;;18.43;nan
8501;BME280;4288;48.484;10.024;2023-07-02T08:13:35;95327.09;;;18.28;nan
8501;BME280;4288;48.484;10.024;2023-07-02T08:16:02;95323.09;;;17.95;nan
8501;BME280;4288;48.484;10.024;2023-07-02T08:18:30;95313.53;;;18.79;nan
8501;BME280;4288;48.484;10.024;2023-07-02T08:20:57;95320.56;;;19.10;nan
8501;BME280;4288;48.484;10.024;2023-07-02T08:23:25;95321.41;;;19.32;nan
8501;BME280;4288;48.484;10.024;2023-07-02T08:25:52;95321.25;;;20.10;nan
8501;BME280;4288;48.484;10.024;2023-07-02T08:28:19;95335.16;;;20.52;nan
8501;BME280;4288;48.484;10.024;2023-07-02T08:30:48;95324.59;;;21.11;nan
8501;BME280;4288;48.484;10.024;2023-07-02T08:33:15;95323.81;;;20.44;nan
8501;BME280;4288;48.484;10.024;2023-07-02T08:35:43;95325.72;;;20.25;nan
8501;BME280;4288;48.484;10.024;2023-07-02T08:38:10;95329.59;;;20.55;nan
8501;BME280;4288;48.484;10.024;2023-07-02T08:40:37;95326.84;;;21.49;nan
8501;BME280;4288;48.484;10.024;2023-07-02T08:43:05;95323.41;;;22.18;nan
8501;BME280;4288;48.484;10.024;2023-07-02T08:45:33;95321.63;;;21.96;nan
8501;BME280;4288;48.484;10.024;2023-07-02T08:48:02;95319.28;;;21.26;nan
8501;BME280;4288;48.484;10.024;2023-07-02T08:50:30;95317.88;;;22.36;nan
8501;BME280;4288;48.484;10.024;2023-07-02T08:52:57;95317.03;;;22.21;nan
8501;BME280;4288;48.484;10.024;2023-07-02T08:55:25;95314.47;;;22.17;nan
8501;BME280;4288;48.484;10.024;2023-07-02T08:57:56;95322.50;;;22.62;nan
8501;BME280;4288;48.484;10.024;2023-07-02T09:00:26;95318.88;;;22.47;nan
8501;BME280;4288;48.484;10.024;2023-07-02T09:02:53;95332.53;;;22.05;nan
8501;BME280;4288;48.484;10.024;2023-07-02T09:05:22;95328.03;;;23.39;nan
8501;BME280;4288;48.484;10.024;2023-07-02T09:07:50;95313.72;;;22.49;nan
8501;BME280;4288;48.484;10.024;2023-07-02T09:10:28;95323.72;;;22.85;nan
8501;BME280;4288;48.484;10.024;2023-07-02T09:13:05;95322.34;;;23.28;nan
8501;BME280;4288;48.484;10.024;2023-07-02T09:15:37;95312.53;;;24.47;nan
8501;BME280;4288;48.484;10.024;2023-07-02T09:18:15;95319.59;;;24.39;nan
8501;BME280;4288;48.484;10.024;2023-07-02T09:20:44;95324.03;;;23.78;nan
8501;BME280;4288;48.484;10.024;2023-07-02T09:23:12;95312.94;;;23.96;nan
8501;BME280;4288;48.484;10.024;2023-07-02T09:25:40;95317.13;;;23.39;nan
8501;BME280;4288;48.484;10.024;2023-07-02T09:28:21;95316.69;;;23.55;nan
8501;BME280;4288;48.484;10.024;2023-07-02T09:30:50;95310.22;;;24.60;nan
8501;BME280;4288;48.484;10.024;2023-07-02T09:33:18;95312.84;;;23.61;nan
8501;BME280;4288;48.484;10.024;2023-07-02T09:35:47;95317.06;;;23.62;nan
8501;BME280;4288;48.484;10.024;2023-07-02T09:38:14;95312.03;;;22.61;nan
8501;BME280;4288;48.484;10.024;2023-07-02T09:40:46;95313.13;;;22.45;nan
8501;BME280;4288;48.484;10.024;2023-07-02T09:43:14;95314.47;;;22.82;nan
8501;BME280;4288;48.484;10.024;2023-07-02T09:45:44;95314.19;;;22.48;nan
8501;BME280;4288;48.484;10.024;2023-07-02T09:48:13;95315.50;;;23.85;nan
8501;BME280;4288;48.484;10.024;2023-07-02T09:50:42;95313.56;;;23.33;nan
8501;BME280;4288;48.484;10.024;2023-07-02T09:53:12;95312.03;;;23.32;nan
8501;BME280;4288;48.484;10.024;2023-07-02T09:55:41;95318.69;;;22.27;nan
8501;BME280;4288;48.484;10.024;2023-07-02T09:58:09;95306.75;;;21.56;nan
8501;BME280;4288;48.484;10.024;2023-07-02T10:00:38;95311.34;;;23.89;nan
8501;BME280;4288;48.484;10.024;2023-07-02T10:03:05;95305.09;;;24.47;nan
8501;BME280;4288;48.484;10.024;2023-07-02T10:05:34;95313.56;;;24.84;nan
8501;BME280;4288;48.484;10.024;2023-07-02T10:08:14;95320.06;;;25.07;nan
8501;BME280;4288;48.484;10.024;2023-07-02T10:10:44;95300.19;;;24.71;nan
8501;BME280;4288;48.484;10.024;2023-07-02T10:13:11;95312.81;;;23.23;nan
8501;BME280;4288;48.484;10.024;2023-07-02T10:15:39;95308.59;;;24.68;nan
8501;BME280;4288;48.484;10.024;2023-07-02T10:18:07;95299.50;;;24.56;nan
8501;BME280;4288;48.484;10.024;2023-07-02T10:20:37;95308.75;;;25.14;nan
8501;BME280;4288;48.484;10.024;2023-07-02T10:23:05;95306.16;;;24.35;nan
8501;BME280;4288;48.484;10.024;2023-07-02T10:25:36;95306.34;;;23.88;nan
8501;BME280;4288;48.484;10.024;2023-07-02T10:28:14;95307.75;;;22.92;nan
8501;BME280;4288;48.484;10.024;2023-07-02T10:30:42;95307.75;;;23.69;nan
8501;BME280;4288;48.484;10.024;2023-07-02T10:33:13;95312.59;;;24.03;nan
8501;BME280;4288;48.484;10.024;2023-07-02T10:35:43;95299.63;;;25.42;nan
8501;BME280;4288;48.484;10.024;2023-07-02T10:38:14;95300.84;;;24.46;nan
8501;BME280;4288;48.484;10.024;2023-07-02T10:40:44;95298.47;;;25.29;nan
8501;BME280;4288;48.484;10.024;2023-07-02T10:43:12;95305.69;;;25.32;nan
8501;BME280;4288;48.484;10.024;2023-07-02T10:45:39;95296.28;;;25.33;nan
8501;BME280;4288;48.484;10.024;2023-07-02T10:48:09;95296.72;;;26.03;nan
8501;BME280;4288;48.484;10.024;2023-07-02T10:50:37;95306.03;;;25.85;nan
8501;BME280;4288;48.484;10.024;2023-07-02T10:53:04;95294.97;;;25.48;nan
8501;BME280;4288;48.484;10.024;2023-07-02T10:55:32;95293.81;;;25.35;nan
8501;BME280;4288;48.484;10.024;2023-07-02T10:58:08;95301.31;;;26.11;nan
8501;BME280;4288;48.484;10.024;2023-07-02T11:00:44;95302.09;;;24.65;nan
8501;BME280;4288;48.484;10.024;2023-07-02T11:03:17;95307.53;;;24.11;nan
8501;BME280;4288;48.484;10.024;2023-07-02T11:05:45;95298.47;;;25.75;nan
8501;BME280;4288;48.484;10.024;2023-07-02T11:08:13;95294.50;;;24.55;nan
8501;BME280;4288;48.484;10.024;2023-07-02T11:10:41;95297.59;;;24.28;nan
8501;BME280;4288;48.484;10.024;2023-07-02T11:13:14;95298.75;;;25.11;nan
8501;BME280;4288;48.484;10.024;2023-07-02T11:15:42;95290.09;;;25.58;nan
8501;BME280;4288;48.484;10.024;2023-07-02T11:18:12;95288.84;;;25.85;nan
8501;BME280;4288;48.484;10.024;2023-07-02T11:20:40;95304.16;;;25.25;nan
8501;BME280;4288;48.484;10.024;2023-07-02T11:23:17;95297.94;;;24.85;nan
8501;BME280;4288;48.484;10.024;2023-07-02T11:25:55;95278.91;;;24.76;nan
8501;BME280;4288;48.484;10.024;2023-07-02T11:28:24;95292.84;;;25.84;nan
8501;BME280;4288;48.484;10.024;2023-07-02T11:30:52;95289.63;;;27.54;nan
8501;BME280;4288;48.484;10.024;2023-07-02T11:33:31;95294.22;;;24.88;nan
8501;BME280;4288;48.484;10.024;2023-07-02T11:35:58;95278.22;;;26.55;nan
8501;BME280;4288;48.484;10.024;2023-07-02T11:38:26;95279.78;;;26.04;nan
8501;BME280;4288;48.484;10.024;2023-07-02T11:40:53;95283.25;;;26.25;nan
8501;BME280;4288;48.484;10.024;2023-07-02T11:43:21;95275.41;;;25.87;nan
8501;BME280;4288;48.484;10.024;2023-07-02T11:45:49;95273.53;;;27.14;nan
8501;BME280;4288;48.484;10.024;2023-07-02T11:48:17;95272.72;;;26.55;nan
8501;BME280;4288;48.484;10.024;2023-07-02T11:50:44;95261.59;;;25.44;nan
8501;BME280;4288;48.484;10.024;2023-07-02T11:53:12;95270.16;;;27.52;nan
8501;BME280;4288;48.484;10.024;2023-07-02T11:55:39;95272.25;;;28.01;nan
8501;BME280;4288;48.484;10.024;2023-07-02T11:58:07;95266.19;;;26.47;nan
8501;BME280;4288;48.484;10.024;2023-07-02T12:00:34;95264.44;;;26.49;nan
8501;BME280;4288;48.484;10.024;2023-07-02T12:03:03;95267.25;;;26.55;nan
8501;BME280;4288;48.484;10.024;2023-07-02T12:05:30;95272.81;;;27.24;nan
8501;BME280;4288;48.484;10.024;2023-07-02T12:07:57;95258.50;;;27.79;nan
8501;BME280;4288;48.484;10.024;2023-07-02T12:10:25;95267.50;;;27.04;nan
8501;BME280;4288;48.484;10.024;2023-07-02T12:12:52;95262.09;;;26.00;nan
8501;BME280;4288;48.484;10.024;2023-07-02T12:15:20;95262.06;;;27.21;nan
8501;BME280;4288;48.484;10.024;2023-07-02T12:17:47;95248.06;;;25.92;nan
8501;BME280;4288;48.484;10.024;2023-07-02T12:20:16;95258.91;;;27.39;nan
8501;BME280;4288;48.484;10.024;2023-07-02T12:22:43;95252.22;;;27.73;nan
8501;BME280;4288;48.484;10.024;2023-07-02T12:25:11;95267.97;;;28.23;nan
8501;BME280;4288;48.484;10.024;2023-07-02T12:27:38;95258.22;;;28.44;nan
8501;BME280;4288;48.484;10.024;2023-07-02T12:30:07;95262.47;;;27.73;nan
8501;BME280;4288;48.484;10.024;2023-07-02T12:32:35;95269.66;;;28.81;nan
8501;BME280;4288;48.484;10.024;2023-07-02T12:35:02;95250.97;;;28.63;nan
8501;BME280;4288;48.484;10.024;2023-07-02T12:39:59;95244.13;;;28.86;nan
8501;BME280;4288;48.484;10.024;2023-07-02T12:42:27;95243.75;;;27.71;nan
8501;BME280;4288;48.484;10.024;2023-07-02T12:44:54;95226.72;;;27.45;nan
8501;BME280;4288;48.484;10.024;2023-07-02T12:47:21;95242.25;;;26.89;nan
8501;BME280;4288;48.484;10.024;2023-07-02T12:49:49;95241.22;;;27.62;nan
8501;BME280;4288;48.484;10.024;2023-07-02T12:52:16;95251.63;;;27.30;nan
8501;BME280;4288;48.484;10.024;2023-07-02T12:54:45;95248.72;;;27.89;nan
8501;BME280;4288;48.484;10.024;2023-07-02T12:57:12;95238.72;;;27.70;nan
8501;BME280;4288;48.484;10.024;2023-07-02T12:59:40;95241.97;;;28.35;nan
8501;BME280;4288;48.484;10.024;2023-07-02T13:02:09;95246.94;;;28.69;nan
8501;BME280;4288;48.484;10.024;2023-07-02T13:04:36;95238.53;;;28.06;nan
8501;BME280;4288;48.484;10.024;2023-07-02T13:07:04;95233.28;;;29.04;nan
8501;BME280;4288;48.484;10.024;2023-07-02T13:09:31;95242.47;;;28.61;nan
8501;BME280;4288;48.484;10.024;2023-07-02T13:12:00;95242.75;;;28.07;nan
8501;BME280;4288;48.484;10.024;2023-07-02T13:14:28;95245.50;;;28.24;nan
8501;BME280;4288;48.484;10.024;2023-07-02T13:16:55;95238.25;;;27.82;nan
8501;BME280;4288;48.484;10.024;2023-07-02T13:19:25;95240.75;;;27.80;nan
8501;BME280;4288;48.484;10.024;2023-07-02T13:21:52;95241.25;;;27.95;nan
8501;BME280;4288;48.484;10.024;2023-07-02T13:24:20;95236.44;;;27.41;nan
8501;BME280;4288;48.484;10.024;2023-07-02T13:26:47;95240.63;;;28.85;nan
8501;BME280;4288;48.484;10.024;2023-07-02T13:29:16;95241.97;;;27.74;nan
8501;BME280;4288;48.484;10.024;2023-07-02T13:31:43;95222.78;;;26.82;nan
8501;BME280;4288;48.484;10.024;2023-07-02T13:34:10;95245.50;;;28.07;nan
8501;BME280;4288;48.484;10.024;2023-07-02T13:36:38;95241.72;;;27.50;nan
8501;BME280;4288;48.484;10.024;2023-07-02T13:39:05;95246.72;;;27.57;nan
8501;BME280;4288;48.484;10.024;2023-07-02T13:41:33;95245.44;;;26.34;nan